createdAt,value
2022-11-24T00:00:19.179Z,37.60
2022-11-24T00:03:11.334Z,41.80
2022-11-24T00:05:43.587Z,36.20
2022-11-24T00:08:15.961Z,31.80
2022-11-24T00:10:48.027Z,34.50
2022-11-24T00:13:20.373Z,48.10
2022-11-24T00:15:52.442Z,38.50
2022-11-24T00:18:24.482Z,43.60
2022-11-24T00:20:56.522Z,38.50
2022-11-24T00:23:28.639Z,41.50
2022-11-24T00:26:09.023Z,41.40
2022-11-24T00:28:42.247Z,39.50
2022-11-24T00:31:23.506Z,40.70
2022-11-24T00:33:57.713Z,43.70
2022-11-24T00:36:31.956Z,40.30
2022-11-24T00:39:06.043Z,32.50
2022-11-24T00:41:39.748Z,38.40
2022-11-24T00:44:11.761Z,34.40
2022-11-24T00:46:43.928Z,33.00
2022-11-24T00:49:16.100Z,36.40
2022-11-24T00:51:48.190Z,38.10
2022-11-24T00:54:20.308Z,44.80
2022-11-24T00:56:52.527Z,43.00
2022-11-24T00:59:24.566Z,45.00
2022-11-24T01:01:56.591Z,46.30
2022-11-24T01:04:28.853Z,45.10
2022-11-24T01:07:00.867Z,50.90
2022-11-24T01:09:32.957Z,44.80
2022-11-24T01:12:05.267Z,45.60
2022-11-24T01:14:37.485Z,46.70
2022-11-24T01:17:09.568Z,46.60
2022-11-24T01:19:41.581Z,42.70
2022-11-24T01:22:13.643Z,40.60
2022-11-24T01:24:46.043Z,43.30
2022-11-24T01:27:18.058Z,41.10
2022-11-24T01:29:50.050Z,40.50
2022-11-24T01:32:22.038Z,36.50
2022-11-24T01:34:54.128Z,37.60
2022-11-24T01:37:26.193Z,32.60
2022-11-24T01:39:58.207Z,44.50
2022-11-24T01:42:41.364Z,35.70
2022-11-24T01:45:45.862Z,39.70
2022-11-24T01:48:27.372Z,44.00
2022-11-24T01:51:09.357Z,47.90
2022-11-24T01:53:43.366Z,40.20
2022-11-24T01:56:16.165Z,39.50
2022-11-24T01:58:49.741Z,46.40
2022-11-24T02:01:21.899Z,40.30
2022-11-24T02:03:54.948Z,37.20
2022-11-24T02:06:30.802Z,35.20
2022-11-24T02:09:05.585Z,36.30
2022-11-24T02:11:40.206Z,37.80
2022-11-24T02:14:15.116Z,41.60
2022-11-24T02:16:53.191Z,38.30
2022-11-24T02:19:34.887Z,39.40
2022-11-24T02:22:08.337Z,41.10
2022-11-24T02:24:48.698Z,37.10
2022-11-24T02:27:21.532Z,41.10
2022-11-24T02:29:53.667Z,45.50
2022-11-24T02:32:26.124Z,44.20
2022-11-24T02:35:05.117Z,42.00
2022-11-24T02:37:37.196Z,40.80
2022-11-24T02:40:12.605Z,52.00
2022-11-24T02:42:47.595Z,44.10
2022-11-24T02:47:50.396Z,42.80
2022-11-24T02:50:22.461Z,40.20
2022-11-24T02:52:54.425Z,45.10
2022-11-24T02:55:26.467Z,44.10
2022-11-24T02:57:58.481Z,42.10
2022-11-24T03:00:30.472Z,40.70
2022-11-24T03:03:03.207Z,46.30
2022-11-24T03:05:35.369Z,48.00
2022-11-24T03:08:07.904Z,49.70
2022-11-24T03:10:40.218Z,48.70
2022-11-24T03:13:12.206Z,49.40
2022-11-24T03:15:44.317Z,48.90
2022-11-24T03:18:16.391Z,60.00
2022-11-24T03:20:48.432Z,55.80
2022-11-24T03:23:20.448Z,58.00
2022-11-24T03:25:52.512Z,51.60
2022-11-24T03:28:24.552Z,59.00
2022-11-24T03:30:56.597Z,57.20
2022-11-24T03:33:28.734Z,53.10
2022-11-24T03:36:01.132Z,55.60
2022-11-24T03:38:33.375Z,52.80
2022-11-24T03:41:05.472Z,59.00
2022-11-24T03:43:43.184Z,56.10
2022-11-24T03:46:15.769Z,65.50
2022-11-24T03:48:47.937Z,63.30
2022-11-24T03:51:19.980Z,62.10
2022-11-24T03:53:52.020Z,56.00
2022-11-24T03:56:24.087Z,57.00
2022-11-24T03:58:56.282Z,62.20
2022-11-24T04:01:28.315Z,63.10
2022-11-24T04:04:00.461Z,64.00
2022-11-24T04:06:32.783Z,83.50
2022-11-24T04:09:05.210Z,64.30
2022-11-24T04:11:55.090Z,63.10
2022-11-24T04:14:27.157Z,53.70
2022-11-24T04:16:59.222Z,51.80
2022-11-24T04:19:31.237Z,55.70
2022-11-24T04:22:03.277Z,69.90
2022-11-24T04:24:35.479Z,75.10
2022-11-24T04:27:07.692Z,65.40
2022-11-24T04:29:39.683Z,61.90
2022-11-24T04:32:11.749Z,54.50
2022-11-24T04:34:43.734Z,59.90
2022-11-24T04:37:15.697Z,61.70
2022-11-24T04:39:48.201Z,65.40
2022-11-24T04:42:20.213Z,56.80
2022-11-24T04:44:52.308Z,56.50
2022-11-24T04:47:26.396Z,58.50
2022-11-24T04:49:58.462Z,69.90
2022-11-24T04:52:32.675Z,79.80
2022-11-24T04:55:04.825Z,80.70
2022-11-24T04:57:36.962Z,105.90
2022-11-24T05:00:11.709Z,86.20
2022-11-24T05:02:43.733Z,51.50
2022-11-24T05:05:16.127Z,53.80
2022-11-24T05:07:48.329Z,49.00
2022-11-24T05:10:38.837Z,45.00
2022-11-24T05:13:14.668Z,42.80
2022-11-24T05:15:46.654Z,41.80
2022-11-24T05:18:18.800Z,45.90
2022-11-24T05:20:51.318Z,45.10
2022-11-24T05:23:23.341Z,49.70
2022-11-24T05:25:55.303Z,50.50
2022-11-24T05:28:27.317Z,47.50
2022-11-24T05:31:03.309Z,43.70
2022-11-24T05:33:35.395Z,47.30
2022-11-24T05:36:29.142Z,50.10
2022-11-24T05:39:01.512Z,59.90
2022-11-24T05:41:33.482Z,48.40
2022-11-24T05:44:05.522Z,53.90
2022-11-24T05:46:37.747Z,49.70
2022-11-24T05:49:09.833Z,49.60
2022-11-24T05:51:41.790Z,53.40
2022-11-24T05:54:13.779Z,50.60
2022-11-24T05:56:45.789Z,51.40
2022-11-24T05:59:17.929Z,39.50
2022-11-24T06:01:50.302Z,48.30
2022-11-24T06:04:22.319Z,47.70
2022-11-24T06:06:54.337Z,49.10
2022-11-24T06:09:26.272Z,48.90
2022-11-24T06:11:58.235Z,46.10
2022-11-24T06:14:30.199Z,46.10
2022-11-24T06:17:02.299Z,52.70
2022-11-24T06:19:37.435Z,42.80
2022-11-24T06:22:13.487Z,43.70
2022-11-24T06:24:46.193Z,38.40
2022-11-24T06:27:18.462Z,43.20
2022-11-24T06:29:50.428Z,49.10
2022-11-24T06:32:24.285Z,53.80
2022-11-24T06:34:56.276Z,57.40
2022-11-24T06:37:28.314Z,72.70
2022-11-24T06:40:00.508Z,73.60
2022-11-24T06:42:32.630Z,71.40
2022-11-24T06:45:08.804Z,57.90
2022-11-24T06:47:41.672Z,61.80
2022-11-24T06:50:14.172Z,59.70
2022-11-24T06:52:46.240Z,71.60
2022-11-24T06:55:18.718Z,63.70
2022-11-24T06:57:50.651Z,54.00
2022-11-24T07:00:23.282Z,57.70
2022-11-24T07:02:55.254Z,58.20
2022-11-24T07:05:27.694Z,58.10
2022-11-24T07:08:01.577Z,55.90
2022-11-24T07:10:33.515Z,57.40
2022-11-24T07:13:07.915Z,85.70
2022-11-24T07:15:39.835Z,96.50
2022-11-24T07:18:11.837Z,90.30
2022-11-24T07:20:43.757Z,83.50
2022-11-24T07:23:15.715Z,65.30
2022-11-24T07:25:47.653Z,94.40
2022-11-24T07:28:19.588Z,84.00
2022-11-24T07:30:51.581Z,56.30
2022-11-24T07:33:25.359Z,59.20
2022-11-24T07:36:00.316Z,179.40
2022-11-24T07:38:33.534Z,89.20
2022-11-24T07:41:07.305Z,88.00
2022-11-24T07:43:40.277Z,107.00
2022-11-24T07:46:15.370Z,94.00
2022-11-24T07:48:47.777Z,84.40
2022-11-24T07:51:19.804Z,74.90
2022-11-24T07:53:52.099Z,78.80
2022-11-24T07:56:24.042Z,66.40
2022-11-24T07:58:56.538Z,63.20
2022-11-24T08:01:28.538Z,59.20
2022-11-24T08:04:02.340Z,65.80
2022-11-24T08:06:39.850Z,73.10
2022-11-24T08:09:15.271Z,70.90
2022-11-24T08:11:47.211Z,58.00
2022-11-24T08:14:19.105Z,66.00
2022-11-24T08:16:51.104Z,99.40
2022-11-24T08:19:24.560Z,87.60
2022-11-24T08:21:56.576Z,63.00
2022-11-24T08:24:29.307Z,63.90
2022-11-24T08:27:01.472Z,78.20
2022-11-24T08:29:34.026Z,69.20
2022-11-24T08:32:06.639Z,63.80
2022-11-24T08:34:39.285Z,55.20
2022-11-24T08:37:11.427Z,59.10
2022-11-24T08:39:43.388Z,72.00
2022-11-24T08:42:15.327Z,69.70
2022-11-24T08:44:47.241Z,69.50
2022-11-24T08:47:19.230Z,64.50
2022-11-24T08:49:51.242Z,111.40
2022-11-24T08:52:23.233Z,105.90
2022-11-24T08:54:55.169Z,170.50
2022-11-24T08:57:27.133Z,128.30
2022-11-24T08:59:59.096Z,63.40
2022-11-24T09:02:31.392Z,54.00
2022-11-24T09:05:03.384Z,86.00
2022-11-24T09:07:35.643Z,76.60
2022-11-24T09:10:09.187Z,96.70
2022-11-24T09:12:41.090Z,112.60
2022-11-24T09:15:15.102Z,68.50
2022-11-24T09:17:47.090Z,66.30
2022-11-24T09:20:19.619Z,59.10
2022-11-24T09:22:51.605Z,69.10
2022-11-24T09:25:23.749Z,131.10
2022-11-24T09:27:56.586Z,94.90
2022-11-24T09:30:28.724Z,79.60
2022-11-24T09:33:01.352Z,60.70
2022-11-24T09:35:33.317Z,58.30
2022-11-24T09:38:05.820Z,58.50
2022-11-24T09:40:37.794Z,57.40
2022-11-24T09:43:18.757Z,75.00
2022-11-24T09:46:05.636Z,52.20
2022-11-24T09:48:42.394Z,59.40
2022-11-24T09:51:16.764Z,57.50
2022-11-24T09:53:56.177Z,46.90
2022-11-24T09:56:32.182Z,61.80
2022-11-24T09:59:07.579Z,89.20
2022-11-24T10:01:43.397Z,58.30
2022-11-24T10:04:19.559Z,45.30
2022-11-24T10:06:58.164Z,51.40
2022-11-24T10:09:50.743Z,103.10
2022-11-24T10:12:35.090Z,72.20
2022-11-24T10:15:25.736Z,65.20
2022-11-24T10:18:20.975Z,60.10
2022-11-24T10:21:03.203Z,57.70
2022-11-24T10:23:51.296Z,62.70
2022-11-24T10:26:34.190Z,49.20
2022-11-24T10:29:16.907Z,58.10
2022-11-24T10:31:53.556Z,54.60
2022-11-24T10:34:30.769Z,57.90
2022-11-24T10:37:07.516Z,55.40
2022-11-24T10:39:46.751Z,48.90
2022-11-24T10:42:24.935Z,60.90
2022-11-24T10:45:03.629Z,58.90
2022-11-24T10:47:35.646Z,57.50
2022-11-24T10:50:19.464Z,62.80
2022-11-24T10:52:57.365Z,53.50
2022-11-24T10:55:49.348Z,133.90
2022-11-24T10:58:26.968Z,52.10
2022-11-24T11:01:00.838Z,82.00
2022-11-24T11:03:47.051Z,140.20
2022-11-24T11:06:24.746Z,87.60
2022-11-24T11:09:19.328Z,63.70
2022-11-24T11:11:54.346Z,42.80
2022-11-24T11:14:35.728Z,73.90
2022-11-24T11:17:33.834Z,69.20
2022-11-24T11:20:09.020Z,47.90
2022-11-24T11:22:44.366Z,52.10
2022-11-24T11:25:24.575Z,71.50
2022-11-24T11:28:19.578Z,41.30
2022-11-24T11:31:19.829Z,39.20
2022-11-24T11:34:03.820Z,36.80
2022-11-24T11:36:37.613Z,57.40
2022-11-24T11:39:13.870Z,50.40
2022-11-24T11:41:49.663Z,43.00
2022-11-24T11:44:34.250Z,49.90
2022-11-24T11:47:18.920Z,47.70
2022-11-24T11:49:53.009Z,47.90
2022-11-24T11:52:44.913Z,60.90
2022-11-24T11:55:33.111Z,74.20
2022-11-24T11:58:20.874Z,55.30
2022-11-24T12:01:00.663Z,51.30
2022-11-24T12:03:54.578Z,56.60
2022-11-24T12:06:43.782Z,49.70
2022-11-24T12:09:26.165Z,48.20
2022-11-24T12:12:14.360Z,53.40
2022-11-24T12:14:59.199Z,57.60
2022-11-24T12:17:37.357Z,136.70
2022-11-24T12:20:26.297Z,80.60
2022-11-24T12:23:09.751Z,79.80
2022-11-24T12:25:46.727Z,61.70
2022-11-24T12:28:33.809Z,53.40
2022-11-24T12:31:09.066Z,54.40
2022-11-24T12:34:06.427Z,50.50
2022-11-24T12:36:57.360Z,42.20
2022-11-24T12:39:36.735Z,48.80
2022-11-24T12:42:14.315Z,61.60
2022-11-24T12:45:13.239Z,87.40
2022-11-24T12:48:06.347Z,46.80
2022-11-24T12:50:40.381Z,43.10
2022-11-24T12:53:16.876Z,42.00
2022-11-24T12:55:49.915Z,62.80
2022-11-24T12:58:34.066Z,86.30
2022-11-24T13:01:18.842Z,81.20
2022-11-24T13:04:01.601Z,76.70
2022-11-24T13:06:49.366Z,76.50
2022-11-24T13:09:21.932Z,68.40
2022-11-24T13:11:59.149Z,68.90
2022-11-24T13:14:37.545Z,49.00
2022-11-24T13:17:33.721Z,52.10
2022-11-24T13:20:24.544Z,42.40
2022-11-24T13:22:59.603Z,49.50
2022-11-24T13:25:33.062Z,60.40
2022-11-24T13:28:07.085Z,47.30
2022-11-24T13:30:56.192Z,51.40
2022-11-24T13:33:38.999Z,55.40
2022-11-24T13:36:31.679Z,64.90
2022-11-24T13:39:05.606Z,60.60
2022-11-24T13:42:43.759Z,71.10
2022-11-24T13:45:05.129Z,87.30
2022-11-24T13:47:47.085Z,78.90
2022-11-24T13:50:47.414Z,158.90
2022-11-24T13:53:33.480Z,83.40
2022-11-24T13:56:10.617Z,59.20
2022-11-24T13:58:44.069Z,53.20
2022-11-24T14:01:23.234Z,45.90
2022-11-24T14:04:33.846Z,56.70
2022-11-24T14:07:13.068Z,53.80
2022-11-24T14:09:47.701Z,53.60
2022-11-24T14:12:21.766Z,63.90
2022-11-24T14:14:55.742Z,49.40
2022-11-24T14:17:29.350Z,48.60
2022-11-24T14:20:01.365Z,57.70
2022-11-24T14:22:40.523Z,78.80
2022-11-24T14:25:27.410Z,55.70
2022-11-24T14:28:00.505Z,47.00
2022-11-24T14:30:32.642Z,42.50
2022-11-24T14:33:05.375Z,38.70
2022-11-24T14:35:44.494Z,49.00
2022-11-24T14:38:16.815Z,44.70
2022-11-24T14:40:50.735Z,43.20
2022-11-24T14:43:28.531Z,48.50
2022-11-24T14:46:02.371Z,44.10
2022-11-24T14:48:39.555Z,46.80
2022-11-24T14:51:17.584Z,59.70
2022-11-24T14:53:53.260Z,54.50
2022-11-24T14:56:30.189Z,56.30
2022-11-24T14:59:02.468Z,59.80
2022-11-24T15:01:37.367Z,64.30
2022-11-24T15:04:39.325Z,64.00
2022-11-24T15:07:21.748Z,61.50
2022-11-24T15:09:58.187Z,58.10
2022-11-24T15:12:34.993Z,55.60
2022-11-24T15:15:18.345Z,52.10
2022-11-24T15:17:53.485Z,65.90
2022-11-24T15:23:21.783Z,60.50
2022-11-24T15:25:54.479Z,70.50
2022-11-24T15:28:26.880Z,91.60
2022-11-24T15:31:03.097Z,84.80
2022-11-24T15:33:35.599Z,69.70
2022-11-24T15:36:08.446Z,69.70
2022-11-24T15:38:40.349Z,79.80
2022-11-24T15:41:20.576Z,94.30
2022-11-24T15:43:58.939Z,80.50
2022-11-24T15:46:38.063Z,98.40
2022-11-24T15:49:10.393Z,82.40
2022-11-24T15:51:47.120Z,71.70
2022-11-24T15:54:20.702Z,59.20
2022-11-24T15:56:52.609Z,63.50
2022-11-24T15:59:24.853Z,53.00
2022-11-24T16:01:56.834Z,51.60
2022-11-24T16:04:29.192Z,60.40
2022-11-24T16:07:01.108Z,63.10
2022-11-24T16:09:32.989Z,64.10
2022-11-24T16:12:05.284Z,62.20
2022-11-24T16:14:37.694Z,60.20
2022-11-24T16:17:10.261Z,52.70
2022-11-24T16:19:42.324Z,59.90
2022-11-24T16:22:14.444Z,66.30
2022-11-24T16:24:46.382Z,92.20
2022-11-24T16:27:18.344Z,78.20
2022-11-24T16:29:50.617Z,69.40
2022-11-24T16:32:22.579Z,95.20
2022-11-24T16:34:54.517Z,117.70
2022-11-24T16:37:26.686Z,161.30
2022-11-24T16:39:58.667Z,142.40
2022-11-24T16:42:31.072Z,149.30
2022-11-24T16:45:03.394Z,142.20
2022-11-24T16:47:39.506Z,125.60
2022-11-24T16:50:13.549Z,118.70
2022-11-24T16:52:45.660Z,82.40
2022-11-24T16:55:17.639Z,64.50
2022-11-24T16:57:49.688Z,67.50
2022-11-24T17:00:23.444Z,71.50
2022-11-24T17:02:55.467Z,74.00
2022-11-24T17:05:27.935Z,80.40
2022-11-24T17:08:00.786Z,127.60
2022-11-24T17:10:33.032Z,91.10
2022-11-24T17:13:05.011Z,66.10
2022-11-24T17:15:46.211Z,58.50
2022-11-24T17:18:25.191Z,67.60
2022-11-24T17:21:07.680Z,72.20
2022-11-24T17:23:41.629Z,72.50
2022-11-24T17:26:16.671Z,64.80
2022-11-24T17:31:23.374Z,68.90
2022-11-24T17:33:57.344Z,72.90
2022-11-24T17:36:31.482Z,65.60
2022-11-24T17:39:05.128Z,54.90
2022-11-24T17:41:37.814Z,55.50
2022-11-24T17:44:10.780Z,50.70
2022-11-24T17:46:42.923Z,54.30
2022-11-24T17:49:14.945Z,54.40
2022-11-24T17:51:50.617Z,54.60
2022-11-24T17:57:14.763Z,59.10
2022-11-24T17:59:46.827Z,98.30
2022-11-24T18:02:18.925Z,79.40
2022-11-24T18:04:50.962Z,64.60
2022-11-24T18:07:22.992Z,55.30
2022-11-24T18:09:55.192Z,67.40
2022-11-24T18:12:27.258Z,68.80
2022-11-24T18:14:59.734Z,74.50
2022-11-24T18:17:31.697Z,73.40
2022-11-24T18:20:03.787Z,70.30
2022-11-24T18:23:04.064Z,77.40
2022-11-24T18:25:29.756Z,76.20
2022-11-24T18:28:01.694Z,69.60
2022-11-24T18:30:33.603Z,68.80
2022-11-24T18:33:05.570Z,67.50
2022-11-24T18:35:39.760Z,69.10
2022-11-24T18:38:11.932Z,69.40
2022-11-24T18:40:43.969Z,69.80
2022-11-24T18:43:16.522Z,66.70
2022-11-24T18:45:48.790Z,91.30
2022-11-24T18:48:21.396Z,92.10
2022-11-24T18:50:54.208Z,93.20
2022-11-24T18:53:27.805Z,90.60
2022-11-24T18:56:01.997Z,89.20
2022-11-24T18:58:35.780Z,60.70
2022-11-24T19:01:13.184Z,62.00
2022-11-24T19:03:49.099Z,65.80
2022-11-24T19:06:23.141Z,55.40
2022-11-24T19:08:56.763Z,52.80
2022-11-24T19:11:32.592Z,60.40
2022-11-24T19:14:05.861Z,56.30
2022-11-24T19:16:38.164Z,82.40
2022-11-24T19:19:11.655Z,94.90
2022-11-24T19:21:43.748Z,97.10
2022-11-24T19:24:15.788Z,80.10
2022-11-24T19:26:48.088Z,61.70
2022-11-24T19:29:20.610Z,66.10
2022-11-24T19:31:55.314Z,74.80
2022-11-24T19:34:27.737Z,82.20
2022-11-24T19:36:59.804Z,95.20
2022-11-24T19:39:32.031Z,130.60
2022-11-24T19:42:04.911Z,92.50
2022-11-24T19:44:37.059Z,71.20
2022-11-24T19:47:09.143Z,60.50
2022-11-24T19:49:41.158Z,58.30
2022-11-24T19:52:13.094Z,72.70
2022-11-24T19:54:45.954Z,59.00
2022-11-24T19:57:17.870Z,58.60
2022-11-24T19:59:51.621Z,57.30
2022-11-24T20:02:23.600Z,64.50
2022-11-24T20:04:55.804Z,59.10
2022-11-24T20:07:27.772Z,52.90
2022-11-24T20:10:04.421Z,60.10
2022-11-24T20:12:39.631Z,56.70
2022-11-24T20:15:12.550Z,58.00
2022-11-24T20:17:44.530Z,62.00
2022-11-24T20:20:17.184Z,78.60
2022-11-24T20:22:49.082Z,111.80
2022-11-24T20:25:21.113Z,120.70
2022-11-24T20:27:53.250Z,112.00
2022-11-24T20:30:25.193Z,95.90
2022-11-24T20:32:57.848Z,68.90
2022-11-24T20:35:29.836Z,64.40
2022-11-24T20:38:01.775Z,69.30
2022-11-24T20:40:33.763Z,73.30
2022-11-24T20:43:05.674Z,79.60
2022-11-24T20:45:40.087Z,78.80
2022-11-24T20:48:12.163Z,74.80
2022-11-24T20:50:49.770Z,80.20
2022-11-24T20:53:23.207Z,81.20
2022-11-24T20:56:05.633Z,72.70
2022-11-24T20:58:39.087Z,79.10
2022-11-24T21:01:13.640Z,84.20
2022-11-24T21:03:48.780Z,92.00
2022-11-24T21:06:20.789Z,83.60
2022-11-24T21:08:52.779Z,84.30
2022-11-24T21:11:25.279Z,84.10
2022-11-24T21:13:57.221Z,83.40
2022-11-24T21:16:31.181Z,83.40
2022-11-24T21:19:05.910Z,88.20
2022-11-24T21:21:39.380Z,77.80
2022-11-24T21:24:13.822Z,69.70
2022-11-24T21:26:48.117Z,75.20
2022-11-24T21:29:23.667Z,64.40
2022-11-24T21:31:55.862Z,63.20
2022-11-24T21:34:28.054Z,72.60
2022-11-24T21:37:00.150Z,63.60
2022-11-24T21:39:32.142Z,71.20
2022-11-24T21:42:04.814Z,69.50
2022-11-24T21:44:37.175Z,70.30
2022-11-24T21:47:09.817Z,66.30
2022-11-24T21:49:41.729Z,69.00
2022-11-24T21:52:13.717Z,68.80
2022-11-24T21:54:45.629Z,70.60
2022-11-24T21:57:18.079Z,73.90
2022-11-24T21:59:50.249Z,63.50
2022-11-24T22:02:22.467Z,63.50
2022-11-24T22:04:54.587Z,64.30
2022-11-24T22:07:26.907Z,60.60
2022-11-24T22:09:58.818Z,65.30
2022-11-24T22:12:31.422Z,61.50
2022-11-24T22:15:03.385Z,61.50
2022-11-24T22:17:35.324Z,67.40
2022-11-24T22:20:09.753Z,64.40
2022-11-24T22:22:41.707Z,66.20
2022-11-24T22:25:13.722Z,66.30
2022-11-24T22:27:45.735Z,73.60
2022-11-24T22:30:18.239Z,64.10
2022-11-24T22:32:50.149Z,72.60
2022-11-24T22:35:22.134Z,73.90
2022-11-24T22:37:54.333Z,68.30
2022-11-24T22:40:26.194Z,66.70
2022-11-24T22:42:58.976Z,62.00
2022-11-24T22:45:30.904Z,60.90
2022-11-24T22:48:02.954Z,79.90
2022-11-24T22:50:34.866Z,77.20
2022-11-24T22:53:06.804Z,92.80
2022-11-24T22:55:38.819Z,140.90
2022-11-24T22:58:10.755Z,87.80
2022-11-24T23:00:42.693Z,81.70
2022-11-24T23:03:14.708Z,68.40
2022-11-24T23:05:46.803Z,67.50
2022-11-24T23:08:18.988Z,95.10
2022-11-24T23:10:50.906Z,71.20
2022-11-24T23:13:22.740Z,65.50
2022-11-24T23:15:54.700Z,66.20
2022-11-24T23:18:26.694Z,73.50
2022-11-24T23:20:58.758Z,70.90
2022-11-24T23:23:30.646Z,74.00
2022-11-24T23:26:03.691Z,73.70
2022-11-24T23:28:36.090Z,70.50
2022-11-24T23:31:09.868Z,64.20
2022-11-24T23:33:42.211Z,68.20
2022-11-24T23:36:16.660Z,68.70
2022-11-24T23:38:50.029Z,62.00
2022-11-24T23:41:24.527Z,63.40
2022-11-24T23:43:56.601Z,58.30
2022-11-24T23:46:29.969Z,69.00
2022-11-24T23:49:02.132Z,63.00
2022-11-24T23:51:34.706Z,65.70
2022-11-24T23:54:10.873Z,71.50
2022-11-24T23:56:42.810Z,67.40
2022-11-24T23:59:14.902Z,74.90
